Alder, Washington
Current Conditions -  °F | °C
As of 9:13 AM on Thursday 30 Oct 2014 (Local Time) from KGRF Reporting Station
Moderate Rain Moderate Rain  
Wind Chill: 54°   Ceiling: 300
Heat Index: 54°   Visibility: 5mi
Dew Point: 52°   Wind: 0mph
Humidity: 94%   Direction: NA
Pressure: 29.87"   Gusts: NA
Location:  46.8687°N, 122.208°W
Report Text: KGRF 301613Z AUTO 00000KT 5SM RA BR BKN003 OVC009 12/11 A2987 RMK AO2 CIG 003V010 $
Loading
Personal Weather Stations






























Interactive Weather Map New forecast layout! Learn more

10-Day Weather Forecast

Advertisements
Track Severe Weather on mobile